createdAt,value
2023-08-15T05:21:20.151Z,100215.25
2023-08-15T05:24:24.333Z,100235.00
2023-08-15T05:27:26.864Z,100254.38
2023-08-15T05:30:29.439Z,100321.84
2023-08-15T05:33:31.964Z,100383.28
2023-08-15T05:36:36.029Z,100529.81
2023-08-15T05:39:38.609Z,100633.38
2023-08-15T05:42:41.383Z,100680.31
2023-08-15T05:45:45.075Z,100707.00
2023-08-15T05:48:47.662Z,100737.16
2023-08-15T05:51:51.541Z,100750.22
2023-08-15T05:54:54.367Z,100764.44
2023-08-15T05:57:57.744Z,100771.69
2023-08-15T06:01:00.503Z,100800.44
2023-08-15T06:04:03.637Z,100810.91
2023-08-15T06:07:07.684Z,100831.31
2023-08-15T06:10:10.582Z,100831.66
2023-08-15T06:13:13.131Z,100840.63
2023-08-15T06:16:15.669Z,100841.09
2023-08-15T06:19:19.317Z,100860.72
2023-08-15T06:22:23.181Z,100868.88
2023-08-15T06:25:25.808Z,100858.28
2023-08-15T06:28:28.372Z,100860.09
2023-08-15T06:31:32.847Z,100848.28
2023-08-15T06:34:37.708Z,100856.34
2023-08-15T06:37:41.804Z,100847.72
2023-08-15T06:40:44.335Z,100858.88
2023-08-15T06:43:47.220Z,100863.78
2023-08-15T06:46:50.312Z,100866.44
2023-08-15T06:49:52.900Z,100856.59
2023-08-15T06:52:56.752Z,100858.19
2023-08-15T06:55:59.596Z,100859.72
2023-08-15T06:59:02.147Z,100842.88
2023-08-15T07:02:07.230Z,100846.31
2023-08-15T07:05:11.772Z,100829.81
2023-08-15T07:08:15.693Z,100835.44
2023-08-15T07:11:18.296Z,100825.16
2023-08-15T07:14:20.878Z,100827.44
2023-08-15T07:17:23.561Z,100677.97
2023-08-15T07:20:26.190Z,100715.63
2023-08-15T07:23:31.324Z,100709.28
2023-08-15T07:26:33.911Z,100706.88
2023-08-15T07:29:36.457Z,100708.00
2023-08-15T07:32:39.535Z,100698.13
2023-08-15T07:35:42.543Z,100696.25
2023-08-15T07:38:46.363Z,100700.28
2023-08-15T07:41:48.879Z,100709.22
2023-08-15T07:44:51.415Z,100705.56
2023-08-15T07:47:54.639Z,100707.53
2023-08-15T07:50:57.388Z,100713.44
2023-08-15T07:54:01.232Z,100720.91
2023-08-15T07:57:03.771Z,100716.59
2023-08-15T08:00:08.122Z,100715.56
2023-08-15T08:03:11.753Z,100734.16
2023-08-15T08:06:37.332Z,100731.50
2023-08-15T08:09:38.157Z,100731.28
2023-08-15T08:12:40.991Z,100719.75
2023-08-15T08:15:43.538Z,100719.47
2023-08-15T08:18:46.105Z,100733.22
2023-08-15T08:21:48.798Z,100741.47
2023-08-15T08:24:54.337Z,100726.38
2023-08-15T08:27:57.086Z,100725.97
2023-08-15T08:31:00.148Z,100733.78
2023-08-15T08:34:02.780Z,100738.91
2023-08-15T08:37:05.927Z,100737.22
2023-08-15T08:40:13.774Z,100743.53
2023-08-15T08:43:17.660Z,100732.19
2023-08-15T08:46:20.868Z,100729.66
2023-08-15T08:49:28.487Z,100733.44
2023-08-15T08:52:32.861Z,100738.28
2023-08-15T08:55:37.169Z,100740.19
2023-08-15T08:58:43.890Z,100739.75
2023-08-15T09:01:46.984Z,100734.91
2023-08-15T09:04:49.903Z,100742.63
2023-08-15T09:07:53.358Z,100758.13
2023-08-15T09:10:57.193Z,100751.63
2023-08-15T09:14:04.398Z,100740.75
2023-08-15T09:17:06.964Z,100748.84
2023-08-15T09:20:12.653Z,100758.25
2023-08-15T09:23:15.627Z,100745.44
2023-08-15T09:26:19.889Z,100752.28
2023-08-15T09:29:23.914Z,100769.56
2023-08-15T09:32:26.506Z,100768.66
2023-08-15T09:35:29.134Z,100769.69
2023-08-15T09:38:31.675Z,100756.72
2023-08-15T09:41:36.075Z,100765.47
2023-08-15T09:44:40.447Z,100751.34
2023-08-15T09:47:44.302Z,100756.94
2023-08-15T09:50:49.458Z,100753.56
2023-08-15T09:53:52.032Z,100746.00
2023-08-15T09:56:56.000Z,100744.56
2023-08-15T09:59:58.535Z,100733.25
2023-08-15T10:03:02.836Z,100740.19
2023-08-15T10:06:09.044Z,100752.94
2023-08-15T10:09:16.415Z,100738.53
2023-08-15T10:12:20.947Z,100723.91
2023-08-15T10:15:24.726Z,100718.31
2023-08-15T10:18:27.410Z,100648.72
2023-08-15T10:21:47.942Z,100674.31
2023-08-15T10:24:51.254Z,100684.19
2023-08-15T10:27:56.936Z,100699.81
2023-08-15T10:30:59.612Z,100691.91
2023-08-15T10:34:04.007Z,100694.13
2023-08-15T10:37:28.178Z,100677.78
2023-08-15T10:40:40.872Z,100671.47
2023-08-15T10:43:50.562Z,100667.69
2023-08-15T10:46:53.216Z,100666.59
2023-08-15T10:49:55.814Z,100653.03
2023-08-15T10:52:59.580Z,100651.03
2023-08-15T10:56:05.625Z,100635.31
2023-08-15T10:59:12.859Z,100607.03
2023-08-15T11:02:15.537Z,100619.41
2023-08-15T11:05:20.199Z,100633.28
2023-08-15T11:08:22.758Z,100641.03
2023-08-15T11:11:26.159Z,100641.63
2023-08-15T11:14:30.004Z,100651.09
2023-08-15T11:17:32.630Z,100650.28
2023-08-15T11:20:35.254Z,100663.06
2023-08-15T11:23:38.354Z,100689.84
2023-08-15T11:26:41.769Z,100706.25
2023-08-15T11:29:47.030Z,100696.84
2023-08-15T11:32:50.920Z,100690.72
2023-08-15T11:35:53.501Z,100693.31
2023-08-15T11:38:57.770Z,100696.22
2023-08-15T11:42:00.683Z,100693.97
2023-08-15T11:45:10.895Z,100695.09
2023-08-15T11:48:14.333Z,100693.81
2023-08-15T11:51:22.384Z,100682.69
2023-08-15T11:54:28.191Z,100683.50
2023-08-15T11:57:39.696Z,100683.09
2023-08-15T12:00:43.732Z,100680.06
2023-08-15T12:03:46.371Z,100673.03
2023-08-15T12:06:48.920Z,100672.25
2023-08-15T12:09:51.472Z,100678.59
2023-08-15T12:12:53.986Z,100683.63
2023-08-15T12:15:57.890Z,100668.09
2023-08-15T12:19:00.459Z,100671.06
2023-08-15T12:22:03.015Z,100668.78
2023-08-15T12:25:08.891Z,100674.19
2023-08-15T12:28:11.439Z,100668.97
2023-08-15T12:31:15.537Z,100671.03
2023-08-15T12:34:18.679Z,100674.94
2023-08-15T12:37:21.177Z,100674.75
2023-08-15T12:43:31.832Z,100667.78
2023-08-15T12:46:35.677Z,100681.91
2023-08-15T12:49:38.599Z,100681.88
2023-08-15T12:52:41.434Z,100668.13
2023-08-15T12:55:45.265Z,100670.91
2023-08-15T12:58:47.803Z,100667.81
2023-08-15T13:01:51.936Z,100674.63
2023-08-15T13:04:54.503Z,100675.09
2023-08-15T13:07:57.064Z,100673.75
2023-08-15T13:10:59.649Z,100677.38
2023-08-15T13:14:02.426Z,100680.38
2023-08-15T13:17:06.802Z,100686.84
2023-08-15T13:20:12.269Z,100675.22
2023-08-15T13:23:14.761Z,100678.94
2023-08-15T13:26:19.965Z,100681.44
2023-08-15T13:29:22.499Z,100680.38
2023-08-15T13:32:26.334Z,100677.16
2023-08-15T13:35:28.848Z,100685.50
2023-08-15T13:38:31.383Z,100677.84
2023-08-15T13:41:33.892Z,100668.47
2023-08-15T13:44:40.248Z,100659.00
2023-08-15T13:47:44.546Z,100666.22
2023-08-15T13:50:47.312Z,100674.56
2023-08-15T13:53:50.461Z,100676.44
2023-08-15T13:56:55.374Z,100678.22
2023-08-15T13:59:58.379Z,100663.25
2023-08-15T14:03:02.315Z,100660.97
2023-08-15T14:06:05.872Z,100664.94
2023-08-15T14:09:08.426Z,100653.47
2023-08-15T14:12:11.091Z,100652.69
2023-08-15T14:15:14.192Z,100644.47
2023-08-15T14:18:18.077Z,100637.94
2023-08-15T14:21:20.605Z,100646.00
2023-08-15T14:24:23.412Z,100647.47
2023-08-15T14:27:26.094Z,100650.06
2023-08-15T14:30:29.044Z,100658.56
2023-08-15T14:33:32.972Z,100647.00
2023-08-15T14:36:36.492Z,100639.47
2023-08-15T14:39:39.015Z,100616.94
2023-08-15T14:42:41.867Z,100646.19
2023-08-15T14:45:44.449Z,100632.66
2023-08-15T14:48:48.327Z,100646.66
2023-08-15T14:51:50.935Z,100656.47
2023-08-15T14:54:53.669Z,100661.69
2023-08-15T14:57:56.265Z,100659.41
2023-08-15T15:00:58.820Z,100665.03
2023-08-15T15:04:02.832Z,100655.66
2023-08-15T15:07:05.745Z,100651.69
2023-08-15T15:10:09.141Z,100646.41
2023-08-15T15:13:11.762Z,100637.50
2023-08-15T15:16:14.660Z,100639.53
2023-08-15T15:19:18.523Z,100624.81
2023-08-15T15:22:21.332Z,100626.31
2023-08-15T15:25:23.859Z,100633.59
2023-08-15T15:28:26.366Z,100634.06
2023-08-15T15:31:28.901Z,100625.63
2023-08-15T15:34:32.911Z,100621.94
2023-08-15T15:37:35.479Z,100632.38
2023-08-15T15:40:38.001Z,100623.81
2023-08-15T15:43:40.548Z,100627.19
2023-08-15T15:46:53.927Z,100626.81
2023-08-15T15:49:59.027Z,100627.13
2023-08-15T15:53:01.950Z,100624.00
2023-08-15T15:56:04.828Z,100617.91
2023-08-15T15:59:07.391Z,100623.78
2023-08-15T16:02:09.940Z,100621.69
2023-08-15T16:05:14.060Z,100622.53
2023-08-15T16:08:16.712Z,100634.06
2023-08-15T16:11:19.216Z,100621.88
2023-08-15T16:14:21.792Z,100623.56
2023-08-15T16:17:24.574Z,100630.72
2023-08-15T16:20:29.404Z,100627.38
2023-08-15T16:23:31.996Z,100641.84
2023-08-15T16:26:36.763Z,100645.81
2023-08-15T16:29:39.600Z,100650.03
2023-08-15T16:32:42.263Z,100653.59
2023-08-15T16:35:46.230Z,100656.91
2023-08-15T16:38:48.771Z,100659.66
2023-08-15T16:41:51.400Z,100656.91
2023-08-15T16:44:53.952Z,100652.28
2023-08-15T16:47:56.531Z,100658.97
2023-08-15T16:51:00.427Z,100663.09
2023-08-15T16:54:03.021Z,100659.06
2023-08-15T16:57:05.719Z,100651.31
2023-08-15T17:00:09.396Z,100664.28
2023-08-15T17:03:12.153Z,100664.69
2023-08-15T17:06:16.189Z,100664.44
2023-08-15T17:09:18.703Z,100660.28
2023-08-15T17:12:21.487Z,100654.31
2023-08-15T17:15:24.275Z,100652.09
2023-08-15T17:18:27.328Z,100657.91
2023-08-15T17:21:31.184Z,100652.38
